Time;durP1;ratioP1;P1;durP2;ratioP2;P2;SDS_P1;SDS_P2;PMS_P1;PMS_P2;Temp;Humidity;BMP_temperature;BMP_pressure;BME280_temperature;BME280_humidity;BME280_pressure;Samples;Min_cycle;Max_cycle;Signal;HPM_P1;HPM_P2
2021/08/12 00:00:14;;;;;;;;;;;;;;;24.84;66.83;99818.16;2075843;28;19921;-66
2021/08/12 00:01:14;;;;;;;;;;;;;;;24.83;66.65;99820.09;2073954;28;21221;-66
2021/08/12 00:02:15;;;;;;;;;;;;;;;24.83;66.89;99820.09;2075307;28;19970;-66
2021/08/12 00:03:15;;;;;;;;;;;;;;;24.84;66.67;99829.19;2075297;28;19956;-66
2021/08/12 00:04:18;;;;;;;;;;;;;;;24.84;66.91;99829.19;2074911;28;20439;-66
2021/08/12 00:05:18;;;;;;;;;;;;;;;24.83;66.67;99828.34;2075362;28;19924;-66
2021/08/12 00:06:18;;;;;;;;;;;;;;;24.84;66.69;99834.72;2075093;28;19987;-66
2021/08/12 00:07:20;;;;;;;;;;;;;;;24.83;66.59;99830.25;2076271;28;20035;-66
2021/08/12 00:08:21;;;;;;;;;;;;;;;24.84;66.81;99834.72;2075768;28;19920;-66
2021/08/12 00:09:21;;;;;;;;;;;;;;;24.83;66.65;99831.09;2075636;28;19960;-66
2021/08/12 00:10:21;;;;;;;;;;;;;;;24.83;66.72;99825.59;2073922;28;19974;-66
2021/08/12 00:11:22;;;;;;;;;;;;;;;24.83;66.73;99833.88;2073561;28;19974;-66
2021/08/12 00:12:22;;;;;;;;;;;;;;;24.83;66.90;99828.34;2075827;28;20429;-66
2021/08/12 00:13:22;;;;;;;;;;;;;;;24.83;66.69;99828.34;2076419;28;20443;-66
2021/08/12 00:14:23;;;;;;;;;;;;;;;24.83;66.76;99824.75;2073094;28;19971;-66
2021/08/12 00:15:23;;;;;;;;;;;;;;;24.84;66.83;99831.97;2074849;28;19924;-66
2021/08/12 00:16:23;;;;;;;;;;;;;;;24.83;66.64;99828.34;2076430;28;19924;-66
2021/08/12 00:17:24;;;;;;;;;;;;;;;24.83;66.62;99833.03;2076249;28;19921;-66
2021/08/12 00:18:24;;;;;;;;;;;;;;;24.82;66.86;99826.66;2074299;28;19921;-66
2021/08/12 00:19:24;;;;;;;;;;;;;;;24.84;66.92;99829.19;2078226;28;19921;-66
2021/08/12 00:20:25;;;;;;;;;;;;;;;24.82;66.76;99823.91;2074836;28;19995;-66
2021/08/12 00:21:25;;;;;;;;;;;;;;;24.83;66.89;99833.03;2073047;28;20344;-66
2021/08/12 00:22:25;;;;;;;;;;;;;;;24.83;66.84;99827.50;2075826;28;20564;-66
2021/08/12 00:23:27;;;;;;;;;;;;;;;24.83;66.72;99836.63;2075322;28;19990;-66
2021/08/12 00:24:27;;;;;;;;;;;;;;;24.83;66.67;99833.03;2076712;28;19925;-66
2021/08/12 00:25:27;;;;;;;;;;;;;;;24.83;66.82;99836.63;2072905;28;19974;-66
2021/08/12 00:26:28;;;;;;;;;;;;;;;24.83;66.62;99838.53;2074538;28;20468;-66
2021/08/12 00:27:28;;;;;;;;;;;;;;;24.83;66.69;99839.38;2075455;28;19913;-65
2021/08/12 00:28:28;;;;;;;;;;;;;;;24.84;66.79;99834.72;2075219;28;20179;-66
2021/08/12 00:29:29;;;;;;;;;;;;;;;24.83;66.76;99835.78;2076004;28;20418;-65
2021/08/12 00:30:29;;;;;;;;;;;;;;;24.82;66.68;99832.16;2076001;28;20033;-65
2021/08/12 00:31:31;;;;;;;;;;;;;;;24.83;66.69;99833.03;2075203;28;19924;-66
2021/08/12 00:32:31;;;;;;;;;;;;;;;24.82;66.87;99834.94;2075351;28;19931;-65
2021/08/12 00:33:33;;;;;;;;;;;;;;;24.82;66.81;99843.19;2076530;28;19917;-65
2021/08/12 00:34:34;;;;;;;;;;;;;;;24.82;66.78;99832.16;2072351;28;19928;-65
2021/08/12 00:35:34;;;;;;;;;;;;;;;24.82;66.78;99837.69;2072588;28;20830;-66
2021/08/12 00:36:34;;;;;;;;;;;;;;;24.83;66.66;99846.81;2076410;28;19944;-66
2021/08/12 00:37:34;;;;;;;;;;;;;;;24.82;66.77;99837.69;2074959;28;20372;-66
2021/08/12 00:38:35;;;;;;;;;;;;;;;24.81;66.70;99836.81;2075157;28;20642;-66
2021/08/12 00:39:35;;;;;;;;;;;;;;;24.82;66.73;99832.16;2075500;28;20247;-66
2021/08/12 00:40:37;;;;;;;;;;;;;;;24.83;66.62;99835.78;2075447;28;20497;-66
2021/08/12 00:41:40;;;;;;;;;;;;;;;24.83;66.76;99838.53;2075244;28;19921;-66
2021/08/12 00:42:41;;;;;;;;;;;;;;;24.81;66.64;99836.81;2076834;28;19962;-66
2021/08/12 00:43:41;;;;;;;;;;;;;;;24.82;66.64;99837.69;2083015;28;19919;-66
2021/08/12 00:44:41;;;;;;;;;;;;;;;24.81;66.67;99836.81;2073240;28;19995;-66
2021/08/12 00:45:42;;;;;;;;;;;;;;;24.83;66.90;99838.53;2079361;28;19919;-66
2021/08/12 00:46:42;;;;;;;;;;;;;;;24.83;66.73;99838.53;2080135;28;19926;-66
2021/08/12 00:47:42;;;;;;;;;;;;;;;24.83;66.76;99844.03;2074834;28;21445;-66
2021/08/12 00:48:42;;;;;;;;;;;;;;;24.81;66.74;99831.28;2075593;28;19925;-66
2021/08/12 00:49:43;;;;;;;;;;;;;;;24.83;66.76;99838.53;2075347;28;20326;-66
2021/08/12 00:50:45;;;;;;;;;;;;;;;24.81;66.71;99831.28;2073775;28;20744;-66
2021/08/12 00:51:45;;;;;;;;;;;;;;;24.81;66.56;99825.78;2074468;28;19932;-66
2021/08/12 00:52:46;;;;;;;;;;;;;;;24.83;66.58;99822.00;2075449;28;19928;-67
2021/08/12 00:53:46;;;;;;;;;;;;;;;24.83;66.74;99827.50;2076053;28;21337;-66
2021/08/12 00:54:46;;;;;;;;;;;;;;;24.82;66.73;99823.91;2075097;28;19997;-66
2021/08/12 00:55:47;;;;;;;;;;;;;;;24.82;66.78;99826.66;2074494;28;20353;-66
2021/08/12 00:56:48;;;;;;;;;;;;;;;24.82;66.70;99821.16;2075844;28;20074;-66
2021/08/12 00:57:49;;;;;;;;;;;;;;;24.81;66.61;99825.78;2075370;28;19974;-66
2021/08/12 00:58:49;;;;;;;;;;;;;;;24.83;66.70;99819.25;2075950;28;19952;-66
2021/08/12 00:59:49;;;;;;;;;;;;;;;24.83;66.76;99816.47;2074549;28;19970;-66
2021/08/12 01:00:50;;;;;;;;;;;;;;;24.83;66.55;99816.47;2075162;28;20276;-66
2021/08/12 01:01:50;;;;;;;;;;;;;;;24.82;66.77;99818.38;2075652;28;20019;-66
2021/08/12 01:02:51;;;;;;;;;;;;;;;24.81;66.54;99820.25;2074435;28;20314;-66
2021/08/12 01:03:51;;;;;;;;;;;;;;;24.81;66.59;99814.75;2075863;28;19920;-66
2021/08/12 01:04:52;;;;;;;;;;;;;;;24.82;66.67;99815.63;2078355;28;19918;-66
2021/08/12 01:05:55;;;;;;;;;;;;;;;24.82;66.54;99812.88;2074587;28;19921;-66
2021/08/12 01:07:15;;;;;;;;;;;;;;;24.83;66.60;99822.00;2074484;28;20003;-66
2021/08/12 01:08:19;;;;;;;;;;;;;;;24.83;66.63;99817.31;2073114;28;19987;-66
2021/08/12 01:09:24;;;;;;;;;;;;;;;24.83;66.65;99813.72;2075641;28;20094;-66
2021/08/12 01:10:40;;;;;;;;;;;;;;;24.83;66.51;99813.72;2075416;28;19932;-65
2021/08/12 01:11:41;;;;;;;;;;;;;;;24.82;66.70;99807.38;2074203;28;19943;-66
2021/08/12 01:12:54;;;;;;;;;;;;;;;24.82;66.58;99810.13;2075765;28;20415;-66
2021/08/12 01:14:01;;;;;;;;;;;;;;;24.81;66.82;99809.25;2075330;28;20642;-66
2021/08/12 01:15:05;;;;;;;;;;;;;;;24.81;66.59;99809.25;2074236;28;20373;-66
2021/08/12 01:16:09;;;;;;;;;;;;;;;24.83;66.63;99799.94;2075077;28;19924;-66
2021/08/12 01:17:15;;;;;;;;;;;;;;;24.82;66.59;99793.56;2073895;28;19921;-66
2021/08/12 01:18:30;;;;;;;;;;;;;;;24.81;66.60;99795.44;2075705;28;19925;-66
2021/08/12 01:19:50;;;;;;;;;;;;;;;24.81;66.71;99798.22;2074701;28;19966;-66
2021/08/12 01:21:09;;;;;;;;;;;;;;;24.81;66.60;99798.22;2073407;28;20008;-66
2021/08/12 01:22:11;;;;;;;;;;;;;;;24.82;66.59;99799.09;2080509;28;19928;-66
2021/08/12 01:23:12;;;;;;;;;;;;;;;24.81;66.75;99798.22;2081309;28;19908;-66
2021/08/12 01:24:14;;;;;;;;;;;;;;;24.82;66.70;99799.09;2075300;28;20686;-66
2021/08/12 01:25:21;;;;;;;;;;;;;;;24.81;66.67;99803.72;2074457;28;19927;-66
2021/08/12 01:26:23;;;;;;;;;;;;;;;24.81;66.78;99792.69;2074634;28;19924;-66
2021/08/12 01:27:26;;;;;;;;;;;;;;;24.81;66.78;99798.22;2071038;28;20450;-66
2021/08/12 01:28:30;;;;;;;;;;;;;;;24.81;66.67;99783.59;2071996;28;20647;-66
2021/08/12 01:29:33;;;;;;;;;;;;;;;24.81;66.83;99786.34;2072734;28;19924;-67
2021/08/12 01:30:42;;;;;;;;;;;;;;;24.81;66.76;99780.81;2075522;28;19920;-67
2021/08/12 01:31:48;;;;;;;;;;;;;;;24.80;66.73;99779.13;2075124;28;19920;-66
2021/08/12 01:33:01;;;;;;;;;;;;;;;24.81;66.59;99784.44;2073818;28;20538;-67
2021/08/12 01:34:07;;;;;;;;;;;;;;;24.81;66.76;99778.91;2074540;28;19921;-65
2021/08/12 01:35:09;;;;;;;;;;;;;;;24.83;66.78;99772.38;2075240;28;19956;-66
2021/08/12 01:36:10;;;;;;;;;;;;;;;24.81;66.57;99775.31;2073790;28;19998;-66
2021/08/12 01:37:13;;;;;;;;;;;;;;;24.81;66.74;99781.69;2075188;28;20004;-66
2021/08/12 01:38:17;;;;;;;;;;;;;;;24.83;66.69;99777.88;2075189;28;20760;-66
2021/08/12 01:39:17;;;;;;;;;;;;;;;24.82;66.53;99777.03;2082053;28;20004;-66
2021/08/12 01:40:18;;;;;;;;;;;;;;;24.81;66.48;99770.66;2082276;28;19915;-66
2021/08/12 01:41:20;;;;;;;;;;;;;;;24.81;66.70;99770.66;2072155;28;20011;-66
2021/08/12 01:42:22;;;;;;;;;;;;;;;24.81;66.59;99765.13;2074969;28;20710;-66
2021/08/12 01:43:23;;;;;;;;;;;;;;;24.81;66.77;99770.66;2074280;28;20432;-66
2021/08/12 01:44:25;;;;;;;;;;;;;;;24.80;66.68;99757.94;2074630;28;20345;-66
2021/08/12 01:45:26;;;;;;;;;;;;;;;24.81;66.77;99759.63;2073238;28;19928;-67
2021/08/12 01:46:27;;;;;;;;;;;;;;;24.81;66.67;99759.63;2072742;28;20421;-66
2021/08/12 01:47:29;;;;;;;;;;;;;;;24.81;66.63;99754.09;2075280;28;20012;-66
2021/08/12 01:48:30;;;;;;;;;;;;;;;24.82;66.52;99760.50;2073622;28;21013;-66
2021/08/12 01:49:31;;;;;;;;;;;;;;;24.80;66.74;99757.94;2072083;28;20738;-67
2021/08/12 01:50:31;;;;;;;;;;;;;;;24.80;66.54;99752.41;2074425;28;20291;-67
2021/08/12 01:51:32;;;;;;;;;;;;;;;24.81;66.76;99747.75;2074777;28;20274;-66
2021/08/12 01:52:35;;;;;;;;;;;;;;;24.80;66.57;99752.41;2070500;28;19933;-67
2021/08/12 01:53:36;;;;;;;;;;;;;;;24.82;66.43;99754.97;2073258;28;19932;-67
2021/08/12 01:54:38;;;;;;;;;;;;;;;24.80;66.49;99744.16;2072603;28;19971;-66
2021/08/12 01:55:38;;;;;;;;;;;;;;;24.80;66.52;99746.91;2074835;28;19921;-66
2021/08/12 01:56:39;;;;;;;;;;;;;;;24.81;66.84;99748.59;2074120;28;19917;-67
2021/08/12 01:57:40;;;;;;;;;;;;;;;24.80;66.91;99749.66;2074063;28;19917;-66
2021/08/12 01:58:42;;;;;;;;;;;;;;;24.80;66.80;99741.38;2074905;28;19917;-66
2021/08/12 01:59:43;;;;;;;;;;;;;;;24.81;66.79;99743.09;2074335;28;20018;-66
2021/08/12 02:00:46;;;;;;;;;;;;;;;24.81;66.57;99747.75;2073024;28;19925;-66
2021/08/12 02:01:47;;;;;;;;;;;;;;;24.80;66.82;99741.38;2074465;28;19982;-66
2021/08/12 02:02:48;;;;;;;;;;;;;;;24.81;66.58;99743.09;2073877;28;19929;-66
2021/08/12 02:03:49;;;;;;;;;;;;;;;24.81;66.61;99754.09;2077637;28;19944;-66
2021/08/12 02:04:51;;;;;;;;;;;;;;;24.81;66.79;99754.09;2074564;28;20006;-66
2021/08/12 02:05:53;;;;;;;;;;;;;;;24.81;66.76;99754.09;2074872;28;20292;-66
2021/08/12 02:06:53;;;;;;;;;;;;;;;24.80;66.61;99759.84;2074031;28;20502;-67
2021/08/12 02:07:54;;;;;;;;;;;;;;;24.80;66.75;99757.94;2073182;28;20844;-67
2021/08/12 02:08:54;;;;;;;;;;;;;;;24.81;66.55;99753.25;2075305;28;19921;-66
2021/08/12 02:09:55;;;;;;;;;;;;;;;24.80;66.59;99757.94;2075409;28;19951;-66
2021/08/12 02:10:55;;;;;;;;;;;;;;;24.81;66.55;99754.09;2072491;28;19921;-67
2021/08/12 02:11:56;;;;;;;;;;;;;;;24.82;66.61;99757.75;2074723;28;20832;-66
2021/08/12 02:12:56;;;;;;;;;;;;;;;24.81;66.61;99758.78;2073166;28;19920;-66
2021/08/12 02:13:56;;;;;;;;;;;;;;;24.80;66.63;99763.44;2075004;28;19994;-67
2021/08/12 02:14:56;;;;;;;;;;;;;;;24.81;66.55;99764.28;2075005;28;19992;-66
2021/08/12 02:15:57;;;;;;;;;;;;;;;24.80;66.78;99757.94;2073116;28;19925;-66
2021/08/12 02:16:57;;;;;;;;;;;;;;;24.81;66.54;99753.25;2074511;28;19955;-65
2021/08/12 02:17:57;;;;;;;;;;;;;;;24.80;66.66;99752.41;2073892;28;20081;-67
2021/08/12 02:18:59;;;;;;;;;;;;;;;24.81;66.82;99754.09;2074707;28;20003;-66
2021/08/12 02:20:00;;;;;;;;;;;;;;;24.80;66.55;99752.41;2073467;28;19967;-66
2021/08/12 02:21:04;;;;;;;;;;;;;;;24.81;66.81;99751.34;2074177;28;20655;-66
2021/08/12 02:22:10;;;;;;;;;;;;;;;24.81;66.54;99754.09;2074041;28;20568;-67
2021/08/12 02:23:21;;;;;;;;;;;;;;;24.80;66.72;99749.66;2074231;28;19920;-66
2021/08/12 02:24:21;;;;;;;;;;;;;;;24.81;66.60;99750.50;2073500;28;19956;-67
2021/08/12 02:25:28;;;;;;;;;;;;;;;24.80;66.54;99749.66;2074733;28;19927;-66
2021/08/12 02:26:34;;;;;;;;;;;;;;;24.80;66.76;99749.66;2076821;28;19913;-67
2021/08/12 02:27:41;;;;;;;;;;;;;;;24.81;66.47;99758.78;2072891;28;19921;-66
2021/08/12 02:28:42;;;;;;;;;;;;;;;24.80;66.69;99763.44;2074920;28;19924;-66
2021/08/12 02:29:42;;;;;;;;;;;;;;;24.81;66.46;99759.63;2075016;28;20569;-66
2021/08/12 02:30:43;;;;;;;;;;;;;;;24.80;66.52;99759.84;2075302;28;20661;-66
2021/08/12 02:31:45;;;;;;;;;;;;;;;24.81;66.55;99764.28;2074618;28;19974;-66
2021/08/12 02:32:46;;;;;;;;;;;;;;;24.80;66.70;99762.59;2074606;28;19954;-67
2021/08/12 02:33:49;;;;;;;;;;;;;;;24.80;66.42;99768.09;2073032;28;19920;-66
2021/08/12 02:34:51;;;;;;;;;;;;;;;24.80;66.78;99760.69;2072131;28;19925;-67
2021/08/12 02:35:52;;;;;;;;;;;;;;;24.80;66.65;99762.59;2074343;28;19925;-66
2021/08/12 02:36:52;;;;;;;;;;;;;;;24.79;66.53;99761.75;2074114;28;19932;-67
2021/08/12 02:37:54;;;;;;;;;;;;;;;24.79;66.57;99767.25;2074553;28;19921;-67
2021/08/12 02:38:55;;;;;;;;;;;;;;;24.79;66.71;99761.75;2074542;28;19987;-67
2021/08/12 02:39:57;;;;;;;;;;;;;;;24.81;66.69;99767.03;2073732;28;19978;-67
2021/08/12 02:40:57;;;;;;;;;;;;;;;24.80;66.49;99763.44;2072335;28;19926;-66
2021/08/12 02:41:59;;;;;;;;;;;;;;;24.80;66.67;99774.47;2071581;28;20430;-66
2021/08/12 02:43:00;;;;;;;;;;;;;;;24.80;66.68;99774.47;2073871;28;19917;-66
2021/08/12 02:44:00;;;;;;;;;;;;;;;24.80;66.68;99777.22;2074683;28;20084;-67
2021/08/12 02:45:01;;;;;;;;;;;;;;;24.81;66.70;99783.59;2073442;28;20263;-66
2021/08/12 02:46:02;;;;;;;;;;;;;;;24.80;66.69;99779.13;2074914;28;19963;-66
2021/08/12 02:47:03;;;;;;;;;;;;;;;24.80;66.61;99791.00;2073468;28;20454;-66
2021/08/12 02:48:07;;;;;;;;;;;;;;;24.80;66.80;99793.75;2073383;28;19962;-67
2021/08/12 02:49:08;;;;;;;;;;;;;;;24.80;66.49;99792.91;2073344;28;19927;-66
2021/08/12 02:50:10;;;;;;;;;;;;;;;24.80;66.55;99791.00;2072742;28;20626;-66
2021/08/12 02:51:12;;;;;;;;;;;;;;;24.79;66.62;99794.81;2074334;28;19920;-66
2021/08/12 02:52:13;;;;;;;;;;;;;;;24.80;66.77;99779.97;2074341;28;19921;-64
2021/08/12 02:53:14;;;;;;;;;;;;;;;24.80;66.57;99788.25;2072159;28;19924;-66
2021/08/12 02:54:15;;;;;;;;;;;;;;;24.80;66.53;99784.66;2074059;28;19925;-65
2021/08/12 02:55:16;;;;;;;;;;;;;;;24.80;66.57;99785.50;2073492;28;19970;-66
2021/08/12 02:56:16;;;;;;;;;;;;;;;24.79;66.55;99778.28;2071238;28;19924;-65
2021/08/12 02:57:18;;;;;;;;;;;;;;;24.79;66.54;99781.03;2072739;28;19924;-66
2021/08/12 02:58:19;;;;;;;;;;;;;;;24.78;66.70;99776.56;2073755;28;19980;-66
2021/08/12 02:59:20;;;;;;;;;;;;;;;24.80;66.64;99773.63;2072311;28;20635;-66
2021/08/12 03:00:21;;;;;;;;;;;;;;;24.78;66.75;99771.03;2074193;28;19924;-66
2021/08/12 03:01:22;;;;;;;;;;;;;;;24.79;66.46;99771.91;2081148;28;19927;-66
2021/08/12 03:02:23;;;;;;;;;;;;;;;24.79;66.40;99766.38;2080449;28;20011;-65
2021/08/12 03:03:25;;;;;;;;;;;;;;;24.79;66.50;99772.78;2074725;28;19939;-67
2021/08/12 03:04:26;;;;;;;;;;;;;;;24.79;66.64;99771.91;2073297;28;19921;-66
2021/08/12 03:05:26;;;;;;;;;;;;;;;24.79;66.72;99772.78;2072864;28;19978;-66
2021/08/12 03:06:27;;;;;;;;;;;;;;;24.79;66.61;99778.28;2073191;28;20003;-66
2021/08/12 03:07:29;;;;;;;;;;;;;;;24.78;66.63;99771.03;2074310;28;19927;-66
2021/08/12 03:08:31;;;;;;;;;;;;;;;24.80;66.55;99773.63;2073035;28;19955;-66
2021/08/12 03:09:31;;;;;;;;;;;;;;;24.79;66.48;99778.28;2074775;28;19912;-66
2021/08/12 03:10:32;;;;;;;;;;;;;;;24.79;66.53;99778.28;2071847;28;20533;-66
2021/08/12 03:11:33;;;;;;;;;;;;;;;24.79;66.63;99770.00;2073312;28;19909;-66
2021/08/12 03:12:34;;;;;;;;;;;;;;;24.78;66.51;99771.03;2075295;28;20199;-66
2021/08/12 03:13:35;;;;;;;;;;;;;;;24.78;66.66;99765.53;2071723;28;19999;-67
2021/08/12 03:14:36;;;;;;;;;;;;;;;24.78;66.52;99771.03;2075670;28;19917;-67
2021/08/12 03:15:37;;;;;;;;;;;;;;;24.79;66.72;99761.75;2073523;28;19920;-66
2021/08/12 03:16:38;;;;;;;;;;;;;;;24.79;66.58;99766.38;2073087;28;20697;-66
2021/08/12 03:17:39;;;;;;;;;;;;;;;24.79;66.61;99755.34;2074798;28;19924;-66
2021/08/12 03:18:40;;;;;;;;;;;;;;;24.78;66.69;99759.19;2073903;28;19917;-66
2021/08/12 03:19:40;;;;;;;;;;;;;;;24.78;66.63;99754.50;2074762;28;19921;-67
2021/08/12 03:20:41;;;;;;;;;;;;;;;24.79;66.71;99750.72;2073930;28;20000;-67
2021/08/12 03:21:58;;;;;;;;;;;;;;;24.78;66.62;99749.00;2073844;28;20422;-66
2021/08/12 03:22:58;;;;;;;;;;;;;;;24.78;66.71;99749.00;2088351;28;19920;-66
2021/08/12 03:24:02;;;;;;;;;;;;;;;24.78;66.73;99749.00;2090476;28;20382;-66
2021/08/12 03:25:02;;;;;;;;;;;;;;;24.78;66.57;99749.00;2073647;28;20093;-66
2021/08/12 03:26:03;;;;;;;;;;;;;;;24.78;66.67;99751.75;2074710;28;19917;-67
2021/08/12 03:27:04;;;;;;;;;;;;;;;24.78;66.66;99743.47;2073266;28;20942;-66
2021/08/12 03:28:04;;;;;;;;;;;;;;;24.79;66.62;99747.09;2074285;28;20021;-67
2021/08/12 03:29:04;;;;;;;;;;;;;;;24.78;66.74;99743.47;2073746;28;20014;-67
2021/08/12 03:30:05;;;;;;;;;;;;;;;24.78;66.82;99749.00;2073810;28;19927;-67
2021/08/12 03:31:05;;;;;;;;;;;;;;;24.77;66.57;99741.78;2073363;28;19932;-67
2021/08/12 03:32:06;;;;;;;;;;;;;;;24.78;66.67;99743.47;2073225;28;19924;-67
2021/08/12 03:33:07;;;;;;;;;;;;;;;24.77;66.66;99741.78;2073911;28;20461;-67
2021/08/12 03:34:07;;;;;;;;;;;;;;;24.78;66.75;99735.22;2073775;28;20276;-67
2021/08/12 03:35:07;;;;;;;;;;;;;;;24.78;66.88;99735.22;2075106;28;19952;-67
2021/08/12 03:36:08;;;;;;;;;;;;;;;24.78;66.77;99732.47;2074131;28;19928;-67
2021/08/12 03:37:08;;;;;;;;;;;;;;;24.77;66.64;99728.00;2072403;28;19928;-67
2021/08/12 03:38:08;;;;;;;;;;;;;;;24.77;66.72;99736.28;2080147;28;19920;-67
2021/08/12 03:39:09;;;;;;;;;;;;;;;24.78;66.58;99726.09;2080020;28;19958;-67
2021/08/12 03:40:10;;;;;;;;;;;;;;;24.77;66.59;99719.75;2072942;28;19928;-67
2021/08/12 03:41:11;;;;;;;;;;;;;;;24.77;66.62;99725.25;2073915;28;19917;-67
2021/08/12 03:42:11;;;;;;;;;;;;;;;24.78;66.70;99717.81;2073218;28;19956;-67
2021/08/12 03:43:11;;;;;;;;;;;;;;;24.78;66.82;99706.81;2074756;28;19928;-67
2021/08/12 03:44:11;;;;;;;;;;;;;;;24.77;66.72;99703.19;2074636;28;20358;-67
2021/08/12 03:45:12;;;;;;;;;;;;;;;24.77;66.70;99697.69;2079353;28;19920;-67
2021/08/12 03:46:12;;;;;;;;;;;;;;;24.77;66.59;99697.69;2080512;28;20534;-67
2021/08/12 03:47:12;;;;;;;;;;;;;;;24.77;66.78;99685.81;2072952;28;19917;-67
2021/08/12 03:48:13;;;;;;;;;;;;;;;24.77;66.59;99697.69;2073324;28;19971;-67
2021/08/12 03:49:13;;;;;;;;;;;;;;;24.78;66.79;99693.03;2074708;28;20566;-67
2021/08/12 03:50:16;;;;;;;;;;;;;;;24.77;66.61;99694.94;2074943;28;19927;-67
2021/08/12 03:51:16;;;;;;;;;;;;;;;24.77;66.80;99689.41;2074467;28;20430;-67
2021/08/12 03:52:16;;;;;;;;;;;;;;;24.77;66.82;99697.69;2072875;28;20315;-67
2021/08/12 03:53:18;;;;;;;;;;;;;;;24.78;66.63;99693.03;2071706;28;20383;-67
2021/08/12 03:54:18;;;;;;;;;;;;;;;24.78;66.93;99698.53;2074452;28;19920;-67
2021/08/12 03:55:20;;;;;;;;;;;;;;;24.77;66.78;99697.69;2074837;28;19921;-67
2021/08/12 03:56:21;;;;;;;;;;;;;;;24.77;66.55;99703.19;2074031;28;19924;-67
2021/08/12 03:57:21;;;;;;;;;;;;;;;24.78;66.46;99704.88;2073587;28;20383;-67
2021/08/12 03:58:21;;;;;;;;;;;;;;;24.78;66.78;99696.63;2074995;28;20019;-67
2021/08/12 03:59:21;;;;;;;;;;;;;;;24.78;66.63;99693.88;2075106;28;19943;-67
2021/08/12 04:00:22;;;;;;;;;;;;;;;24.77;66.70;99697.69;2074055;28;19921;-67
2021/08/12 04:01:22;;;;;;;;;;;;;;;24.78;66.81;99698.53;2072826;28;19915;-67
2021/08/12 04:02:23;;;;;;;;;;;;;;;24.79;66.77;99700.22;2072184;28;20288;-67
2021/08/12 04:03:23;;;;;;;;;;;;;;;24.77;66.73;99703.19;2074471;28;19951;-67
2021/08/12 04:04:23;;;;;;;;;;;;;;;24.77;66.85;99703.19;2071346;28;20621;-67
2021/08/12 04:05:24;;;;;;;;;;;;;;;24.77;66.73;99697.69;2074401;28;19917;-67
2021/08/12 04:06:24;;;;;;;;;;;;;;;24.77;66.62;99700.44;2074661;28;19928;-67
2021/08/12 04:07:25;;;;;;;;;;;;;;;24.78;66.79;99698.53;2072648;28;20399;-67
2021/08/12 04:08:25;;;;;;;;;;;;;;;24.78;66.69;99704.03;2075247;28;20000;-67
2021/08/12 04:09:25;;;;;;;;;;;;;;;24.78;66.72;99704.03;2070772;28;20518;-67
2021/08/12 04:10:26;;;;;;;;;;;;;;;24.77;66.57;99697.69;2072525;28;20033;-67
2021/08/12 04:11:26;;;;;;;;;;;;;;;24.77;66.70;99697.69;2073614;28;19928;-67
2021/08/12 04:12:26;;;;;;;;;;;;;;;24.77;66.77;99697.69;2073078;28;20944;-65
2021/08/12 04:13:27;;;;;;;;;;;;;;;24.77;66.62;99692.19;2074337;28;20359;-67
2021/08/12 04:14:27;;;;;;;;;;;;;;;24.77;66.59;99697.69;2074245;28;20522;-67
2021/08/12 04:15:27;;;;;;;;;;;;;;;24.77;66.80;99703.19;2072395;28;20057;-67
2021/08/12 04:16:27;;;;;;;;;;;;;;;24.77;66.62;99708.72;2074124;28;19943;-67
2021/08/12 04:17:28;;;;;;;;;;;;;;;24.77;66.64;99705.94;2072244;28;19947;-67
2021/08/12 04:18:28;;;;;;;;;;;;;;;24.78;66.67;99715.06;2073315;28;19924;-67
2021/08/12 04:19:28;;;;;;;;;;;;;;;24.77;66.80;99711.47;2073057;28;19916;-67
2021/08/12 04:20:29;;;;;;;;;;;;;;;24.77;66.79;99714.22;2073911;28;20001;-67
2021/08/12 04:21:29;;;;;;;;;;;;;;;24.77;66.67;99714.22;2073411;28;19921;-67
2021/08/12 04:22:29;;;;;;;;;;;;;;;24.77;66.62;99714.22;2074980;28;19913;-67
2021/08/12 04:23:30;;;;;;;;;;;;;;;24.78;66.75;99715.91;2076146;28;19927;-67
2021/08/12 04:24:30;;;;;;;;;;;;;;;24.77;66.80;99714.22;2074377;28;19924;-67
2021/08/12 04:25:30;;;;;;;;;;;;;;;24.77;66.78;99714.22;2074390;28;19921;-67
2021/08/12 04:26:30;;;;;;;;;;;;;;;24.77;66.73;99716.97;2074931;28;19927;-67
2021/08/12 04:27:31;;;;;;;;;;;;;;;24.77;66.73;99716.13;2074088;28;19952;-67
2021/08/12 04:28:31;;;;;;;;;;;;;;;24.77;66.64;99725.25;2075564;28;19921;-67
2021/08/12 04:29:31;;;;;;;;;;;;;;;24.76;66.73;99712.50;2073418;28;19912;-67
2021/08/12 04:30:32;;;;;;;;;;;;;;;24.76;66.68;99723.53;2074628;28;20407;-67
2021/08/12 04:31:32;;;;;;;;;;;;;;;24.76;66.79;99720.75;2075573;28;19924;-67
2021/08/12 04:32:32;;;;;;;;;;;;;;;24.76;66.76;99723.53;2075601;28;19920;-67
2021/08/12 04:33:33;;;;;;;;;;;;;;;24.77;66.72;99713.38;2075852;28;19921;-67
2021/08/12 04:34:33;;;;;;;;;;;;;;;24.77;66.83;99719.75;2073337;28;20831;-67
2021/08/12 04:35:33;;;;;;;;;;;;;;;24.77;66.65;99718.88;2074160;28;19921;-67
2021/08/12 04:36:34;;;;;;;;;;;;;;;24.77;66.86;99714.22;2074981;28;19924;-67
2021/08/12 04:37:36;;;;;;;;;;;;;;;24.75;66.85;99713.56;2077476;28;20481;-67
2021/08/12 04:38:36;;;;;;;;;;;;;;;24.76;66.75;99715.25;2078973;28;19920;-66
2021/08/12 04:39:37;;;;;;;;;;;;;;;24.76;66.89;99718.00;2076618;28;19920;-67
2021/08/12 04:40:37;;;;;;;;;;;;;;;24.76;66.72;99718.00;2075798;28;19917;-67
2021/08/12 04:41:38;;;;;;;;;;;;;;;24.77;66.81;99713.38;2075683;28;19913;-67
2021/08/12 04:42:38;;;;;;;;;;;;;;;24.76;66.87;99723.53;2072870;28;19932;-67
2021/08/12 04:43:38;;;;;;;;;;;;;;;24.76;66.71;99723.53;2074698;28;19937;-67
2021/08/12 04:44:39;;;;;;;;;;;;;;;24.76;66.88;99729.03;2074595;28;19960;-67
2021/08/12 04:45:39;;;;;;;;;;;;;;;24.77;66.79;99730.75;2081222;28;19956;-68
2021/08/12 04:46:39;;;;;;;;;;;;;;;24.76;66.75;99729.03;2073644;28;19921;-67
2021/08/12 04:47:40;;;;;;;;;;;;;;;24.76;66.80;99726.28;2072621;28;19971;-67
2021/08/12 04:48:40;;;;;;;;;;;;;;;24.76;66.68;99729.03;2074434;28;20587;-67
2021/08/12 04:49:40;;;;;;;;;;;;;;;24.76;66.64;99726.28;2074001;28;19909;-66
2021/08/12 04:50:40;;;;;;;;;;;;;;;24.76;66.69;99726.28;2073725;28;19917;-67
2021/08/12 04:51:44;;;;;;;;;;;;;;;24.76;66.85;99726.28;2074133;28;19917;-67
2021/08/12 04:52:44;;;;;;;;;;;;;;;24.76;66.73;99726.28;2075483;28;19920;-67
2021/08/12 04:53:45;;;;;;;;;;;;;;;24.76;66.85;99725.44;2076183;28;19924;-67
2021/08/12 04:54:45;;;;;;;;;;;;;;;24.76;66.77;99726.28;2076506;28;19927;-67
2021/08/12 04:55:45;;;;;;;;;;;;;;;24.76;66.73;99731.78;2074776;28;19927;-67
2021/08/12 04:56:46;;;;;;;;;;;;;;;24.76;66.72;99734.56;2074048;28;19920;-67
2021/08/12 04:57:46;;;;;;;;;;;;;;;24.76;66.87;99734.56;2073567;28;19925;-67
2021/08/12 04:58:46;;;;;;;;;;;;;;;24.76;66.74;99729.03;2074907;28;19944;-67
2021/08/12 04:59:46;;;;;;;;;;;;;;;24.76;66.77;99737.31;2075342;28;19924;-67
2021/08/12 05:00:47;;;;;;;;;;;;;;;24.76;66.90;99731.78;2075675;28;20009;-67
2021/08/12 05:01:47;;;;;;;;;;;;;;;24.75;66.75;99735.63;2074603;28;20358;-67
2021/08/12 05:02:47;;;;;;;;;;;;;;;24.76;66.74;99745.56;2074315;28;19971;-67
2021/08/12 05:03:48;;;;;;;;;;;;;;;24.76;66.96;99742.81;2075619;28;19956;-67
2021/08/12 05:04:48;;;;;;;;;;;;;;;24.75;66.97;99743.88;2075092;28;19920;-67
2021/08/12 05:05:48;;;;;;;;;;;;;;;24.76;66.77;99750.25;2075548;28;19912;-67
2021/08/12 05:06:49;;;;;;;;;;;;;;;24.76;66.74;99756.59;2074231;28;19940;-67
2021/08/12 05:07:49;;;;;;;;;;;;;;;24.76;66.84;99751.09;2073190;28;19923;-67
2021/08/12 05:08:49;;;;;;;;;;;;;;;24.75;66.99;99749.41;2077674;28;19956;-67
2021/08/12 05:09:50;;;;;;;;;;;;;;;24.76;66.80;99762.13;2073410;28;19913;-67
2021/08/12 05:10:50;;;;;;;;;;;;;;;24.77;66.75;99760.22;2076830;28;20020;-67
2021/08/12 05:11:50;;;;;;;;;;;;;;;24.76;66.85;99756.59;2073804;28;19912;-67
2021/08/12 05:12:51;;;;;;;;;;;;;;;24.76;66.64;99756.59;2075192;28;19920;-66
2021/08/12 05:13:51;;;;;;;;;;;;;;;24.76;66.84;99755.75;2072018;28;20451;-67
2021/08/12 05:14:52;;;;;;;;;;;;;;;24.75;66.69;99754.06;2076108;28;19966;-67
2021/08/12 05:15:52;;;;;;;;;;;;;;;24.76;66.79;99761.25;2075144;28;19913;-67
2021/08/12 05:16:52;;;;;;;;;;;;;;;24.76;66.71;99756.59;2073900;28;20011;-67
2021/08/12 05:17:53;;;;;;;;;;;;;;;24.76;66.96;99762.13;2075551;28;19934;-67
2021/08/12 05:18:53;;;;;;;;;;;;;;;24.75;66.95;99759.56;2075480;28;19931;-67
2021/08/12 05:19:53;;;;;;;;;;;;;;;24.75;66.74;99757.66;2075333;28;19987;-67